createdAt,value
2019-05-06T00:01:46.545Z,101206.94
2019-05-06T00:04:15.901Z,101202.42
2019-05-06T00:06:45.423Z,101204.38
2019-05-06T00:09:15.361Z,101203.50
2019-05-06T00:11:44.924Z,101198.59
2019-05-06T00:14:14.301Z,101194.30
2019-05-06T00:16:47.372Z,101190.66
2019-05-06T00:19:16.863Z,101191.11
2019-05-06T00:21:46.307Z,101193.91
2019-05-06T00:24:15.687Z,101191.67
2019-05-06T00:27:04.737Z,101187.83
2019-05-06T00:29:35.046Z,101187.19
2019-05-06T00:32:04.630Z,101186.90
2019-05-06T00:34:34.248Z,101184.87
2019-05-06T00:37:04.145Z,101185.30
2019-05-06T00:40:04.732Z,101186.14
2019-05-06T00:42:56.049Z,101189.91
2019-05-06T00:45:25.401Z,101183.59
2019-05-06T00:47:54.772Z,101186.39
2019-05-06T00:50:24.321Z,101185.55
2019-05-06T00:52:55.827Z,101182.63
2019-05-06T00:55:25.202Z,101184.98
2019-05-06T00:57:54.635Z,101185.06
2019-05-06T01:00:28.431Z,101182.73
2019-05-06T01:02:57.888Z,101185.44
2019-05-06T01:05:27.280Z,101186.66
2019-05-06T01:07:56.707Z,101181.61
2019-05-06T01:10:26.026Z,101182.19
2019-05-06T01:13:04.235Z,101181.14
2019-05-06T01:15:34.368Z,101184.14
2019-05-06T01:18:04.292Z,101177.58
2019-05-06T01:20:34.079Z,101183.90
2019-05-06T01:23:03.829Z,101190.55
2019-05-06T01:25:34.581Z,101183.73
2019-05-06T01:28:04.337Z,101184.19
2019-05-06T01:30:33.867Z,101174.91
2019-05-06T01:33:03.939Z,101179.69
2019-05-06T01:35:35.201Z,101172.03
2019-05-06T01:38:24.320Z,101175.22
2019-05-06T01:41:19.119Z,101175.73
2019-05-06T01:43:48.557Z,101181.84
2019-05-06T01:46:17.882Z,101173.84
2019-05-06T01:48:50.115Z,101176.84
2019-05-06T01:51:20.446Z,101178.64
2019-05-06T01:53:50.375Z,101182.97
2019-05-06T01:56:20.035Z,101180.94
2019-05-06T01:58:49.596Z,101179.30
2019-05-06T02:01:18.880Z,101190.20
2019-05-06T02:03:48.210Z,101188.88
2019-05-06T02:06:17.702Z,101187.88
2019-05-06T02:08:47.077Z,101184.52
2019-05-06T02:11:16.388Z,101180.55
2019-05-06T02:13:45.817Z,101186.01
2019-05-06T02:16:15.301Z,101177.59
2019-05-06T02:18:45.191Z,101179.23
2019-05-06T02:21:23.790Z,101184.52
2019-05-06T02:23:57.053Z,101185.84
2019-05-06T02:26:26.514Z,101191.14
2019-05-06T02:28:57.569Z,101187.17
2019-05-06T02:31:46.020Z,101186.84
2019-05-06T02:34:25.403Z,101190.07
2019-05-06T02:37:07.392Z,101192.63
2019-05-06T02:39:36.923Z,101191.55
2019-05-06T02:42:08.085Z,101194.64
2019-05-06T02:44:37.542Z,101191.12
2019-05-06T02:47:29.011Z,101197.38
2019-05-06T02:50:04.473Z,101194.05
2019-05-06T02:52:33.153Z,101190.33
2019-05-06T02:55:06.068Z,101188.06
2019-05-06T02:57:33.734Z,101189.47
2019-05-06T03:00:05.054Z,101184.47
2019-05-06T03:02:43.076Z,101184.42
2019-05-06T03:05:06.040Z,101186.72
2019-05-06T03:07:37.773Z,101177.66
2019-05-06T03:10:08.294Z,101179.54
2019-05-06T03:12:37.688Z,101179.58
2019-05-06T03:15:07.342Z,101184.45
2019-05-06T03:17:36.848Z,101171.63
2019-05-06T03:20:08.072Z,101177.80
2019-05-06T03:22:59.515Z,101175.86
2019-05-06T03:25:33.198Z,101176.25
2019-05-06T03:28:04.207Z,101173.39
2019-05-06T03:30:36.363Z,101172.39
2019-05-06T03:35:50.448Z,101169.32
2019-05-06T03:38:07.378Z,101176.31
2019-05-06T03:40:41.323Z,101170.72
2019-05-06T03:43:07.883Z,101171.05
2019-05-06T03:45:56.209Z,101170.70
2019-05-06T03:48:33.275Z,101170.89
2019-05-06T03:51:04.165Z,101167.37
2019-05-06T03:53:35.504Z,101167.55
2019-05-06T03:56:04.973Z,101162.47
2019-05-06T03:58:37.162Z,101168.97
2019-05-06T04:01:06.541Z,101173.00
2019-05-06T04:03:47.239Z,101176.12
2019-05-06T04:06:07.080Z,101174.52
2019-05-06T04:08:36.596Z,101172.72
2019-05-06T04:11:06.353Z,101175.84
2019-05-06T04:13:36.208Z,101171.88
2019-05-06T04:16:27.661Z,101169.36
2019-05-06T04:19:05.122Z,101171.88
2019-05-06T04:21:43.703Z,101170.34
2019-05-06T04:24:22.895Z,101170.08
2019-05-06T04:26:57.445Z,101177.50
2019-05-06T04:29:29.060Z,101177.06
2019-05-06T04:31:58.580Z,101183.70
2019-05-06T04:34:28.003Z,101171.27
2019-05-06T04:36:57.834Z,101179.13
2019-05-06T04:39:27.325Z,101178.20
2019-05-06T04:41:57.241Z,101183.91
2019-05-06T04:44:27.345Z,101178.58
2019-05-06T04:46:56.945Z,101182.45
2019-05-06T04:49:26.323Z,101174.88
2019-05-06T04:51:55.681Z,101182.89
2019-05-06T04:54:26.652Z,101181.97
2019-05-06T04:56:56.395Z,101185.65
2019-05-06T04:59:26.026Z,101180.22
2019-05-06T05:01:55.413Z,101181.24
2019-05-06T05:04:32.258Z,101172.31
2019-05-06T05:06:56.161Z,101173.51
2019-05-06T05:09:26.696Z,101173.20
2019-05-06T05:12:02.481Z,101172.05
2019-05-06T05:14:42.421Z,101176.56
2019-05-06T05:17:33.826Z,101172.44
2019-05-06T05:20:03.531Z,101177.92
2019-05-06T05:22:32.866Z,101164.86
2019-05-06T05:25:03.442Z,101165.37
2019-05-06T05:27:33.212Z,101163.08
2019-05-06T05:30:02.622Z,101167.08
2019-05-06T05:32:32.252Z,101172.55
2019-05-06T05:35:02.158Z,101167.75
2019-05-06T05:37:32.874Z,101169.26
2019-05-06T05:40:03.192Z,101176.08
2019-05-06T05:42:52.215Z,101180.08
2019-05-06T05:45:22.191Z,101178.73
2019-05-06T05:47:52.256Z,101183.05
2019-05-06T05:50:26.755Z,101181.70
2019-05-06T05:52:57.569Z,101188.84
2019-05-06T05:55:28.244Z,101182.84
2019-05-06T05:57:58.625Z,101183.66
2019-05-06T06:00:32.260Z,101186.95
2019-05-06T06:03:02.912Z,101185.41
2019-05-06T06:05:33.020Z,101186.53
2019-05-06T06:08:03.489Z,101180.04
2019-05-06T06:10:56.443Z,101180.01
2019-05-06T06:13:26.017Z,101177.16
2019-05-06T06:16:13.250Z,101170.39
2019-05-06T06:18:53.224Z,101174.66
2019-05-06T06:21:32.240Z,101176.24
2019-05-06T06:24:07.110Z,101183.61
2019-05-06T06:26:36.708Z,101184.00
2019-05-06T06:29:06.159Z,101182.47
2019-05-06T06:31:42.765Z,101182.75
2019-05-06T06:34:18.507Z,101188.07
2019-05-06T06:36:57.365Z,101195.02
2019-05-06T06:39:32.665Z,101195.53
2019-05-06T06:42:02.905Z,101189.41
2019-05-06T06:44:34.064Z,101192.63
2019-05-06T06:47:03.642Z,101196.22
2019-05-06T06:49:33.216Z,101187.15
2019-05-06T06:52:03.050Z,101184.42
2019-05-06T06:54:32.766Z,101185.20
2019-05-06T06:57:27.299Z,101188.69
2019-05-06T07:00:12.493Z,101192.05
2019-05-06T07:02:49.041Z,101192.41
2019-05-06T07:05:33.198Z,101186.09
2019-05-06T07:08:02.983Z,101184.91
2019-05-06T07:10:44.760Z,101188.95
2019-05-06T07:13:15.484Z,101188.83
2019-05-06T07:15:45.182Z,101181.94
2019-05-06T07:18:14.599Z,101181.63
2019-05-06T07:21:04.951Z,101179.64
2019-05-06T07:23:35.437Z,101182.49
2019-05-06T07:26:04.843Z,101184.53
2019-05-06T07:28:34.238Z,101181.03
2019-05-06T07:31:17.427Z,101179.70
2019-05-06T07:33:34.774Z,101182.95
2019-05-06T07:36:04.260Z,101184.20
2019-05-06T07:38:33.768Z,101180.03
2019-05-06T07:41:17.995Z,101186.72
2019-05-06T07:44:13.027Z,101184.00
2019-05-06T07:46:57.921Z,101180.76
2019-05-06T07:49:27.306Z,101185.98
2019-05-06T07:51:56.849Z,101186.41
2019-05-06T07:54:26.434Z,101178.98
2019-05-06T07:56:55.868Z,101183.30
2019-05-06T07:59:25.359Z,101180.22
2019-05-06T08:01:54.888Z,101181.69
2019-05-06T08:04:24.260Z,101173.06
2019-05-06T08:06:53.742Z,101172.84
2019-05-06T08:09:23.170Z,101175.24
2019-05-06T08:11:53.144Z,101169.08
2019-05-06T08:14:24.386Z,101163.02
2019-05-06T08:17:04.224Z,101165.63
2019-05-06T08:19:33.862Z,101165.30
2019-05-06T08:22:06.550Z,101172.04
2019-05-06T08:24:36.726Z,101162.70
2019-05-06T08:27:06.217Z,101173.13
2019-05-06T08:29:35.734Z,101162.66
2019-05-06T08:32:05.275Z,101175.20
2019-05-06T08:34:34.689Z,101167.48
2019-05-06T08:37:26.048Z,101160.33
2019-05-06T08:39:55.640Z,101161.15
2019-05-06T08:42:25.026Z,101160.66
2019-05-06T08:44:54.408Z,101157.99
2019-05-06T08:47:24.875Z,101151.95
2019-05-06T08:50:22.418Z,101149.16
2019-05-06T08:53:24.271Z,101146.89
2019-05-06T08:55:54.127Z,101144.11
2019-05-06T08:58:43.197Z,101136.27
2019-05-06T09:01:15.469Z,101142.34
2019-05-06T09:03:44.888Z,101128.66
2019-05-06T09:06:26.527Z,101135.23
2019-05-06T09:08:46.037Z,101128.03
2019-05-06T09:11:15.509Z,101129.24
2019-05-06T09:13:44.950Z,101132.95
2019-05-06T09:16:14.416Z,101138.86
2019-05-06T09:18:44.211Z,101132.56
2019-05-06T09:21:14.738Z,101135.77
2019-05-06T09:23:44.239Z,101134.74
2019-05-06T09:26:18.101Z,101139.76
2019-05-06T09:28:55.902Z,101127.91
2019-05-06T09:31:35.061Z,101132.88
2019-05-06T09:34:23.216Z,101136.78
2019-05-06T09:37:13.327Z,101128.45
2019-05-06T09:39:43.304Z,101126.27
2019-05-06T09:42:13.053Z,101124.10
2019-05-06T09:44:43.015Z,101131.65
2019-05-06T09:47:22.821Z,101132.67
2019-05-06T09:49:53.057Z,101128.13
2019-05-06T09:52:23.293Z,101133.30
2019-05-06T09:54:59.397Z,101126.28
2019-05-06T09:57:32.684Z,101124.92
2019-05-06T10:00:04.715Z,101114.38
2019-05-06T10:02:33.995Z,101116.16
2019-05-06T10:05:06.035Z,101122.91
2019-05-06T10:07:35.455Z,101120.95
2019-05-06T10:10:05.000Z,101123.45
2019-05-06T10:12:34.333Z,101118.66
2019-05-06T10:15:03.752Z,101118.23
2019-05-06T10:17:33.374Z,101109.14
2019-05-06T10:20:03.134Z,101104.57
2019-05-06T10:22:32.698Z,101111.91
2019-05-06T10:25:03.625Z,101110.69
2019-05-06T10:27:33.810Z,101122.48
2019-05-06T10:30:06.762Z,101118.87
2019-05-06T10:33:07.314Z,101120.20
2019-05-06T10:35:37.080Z,101119.95
2019-05-06T10:39:02.197Z,101117.96
2019-05-06T10:41:35.272Z,101117.23
2019-05-06T10:44:33.451Z,101114.23
2019-05-06T10:47:03.049Z,101108.17
2019-05-06T10:49:33.689Z,101117.96
2019-05-06T10:52:13.187Z,101112.88
2019-05-06T10:54:42.709Z,101106.17
2019-05-06T10:57:22.168Z,101102.39
2019-05-06T10:59:52.227Z,101093.80
2019-05-06T11:02:52.368Z,101095.78
2019-05-06T11:05:24.316Z,101096.92
2019-05-06T11:07:54.416Z,101092.38
2019-05-06T11:10:29.536Z,101092.02
2019-05-06T11:12:55.057Z,101082.66
2019-05-06T11:15:24.606Z,101084.33
2019-05-06T11:17:54.019Z,101083.97
2019-05-06T11:20:24.158Z,101078.63
2019-05-06T11:22:53.896Z,101076.05
2019-05-06T11:25:23.286Z,101087.28
2019-05-06T11:27:52.981Z,101078.61
2019-05-06T11:30:47.056Z,101082.28
2019-05-06T11:33:42.470Z,101085.20
2019-05-06T11:36:20.081Z,101081.32
2019-05-06T11:38:49.594Z,101072.62
2019-05-06T11:41:19.136Z,101066.07
2019-05-06T11:43:48.563Z,101083.83
2019-05-06T11:46:18.018Z,101072.70
2019-05-06T11:48:47.402Z,101071.09
2019-05-06T11:51:18.727Z,101074.23
2019-05-06T11:53:48.247Z,101063.06
2019-05-06T11:56:17.695Z,101067.58
2019-05-06T11:58:58.990Z,101071.74
2019-05-06T12:01:32.899Z,101070.89
2019-05-06T12:04:02.975Z,101069.06
2019-05-06T12:06:33.157Z,101069.20
2019-05-06T12:09:06.481Z,101069.55
2019-05-06T12:11:36.203Z,101070.28
2019-05-06T12:14:05.936Z,101080.81
2019-05-06T12:16:35.317Z,101072.78
2019-05-06T12:19:04.764Z,101069.16
2019-05-06T12:21:34.612Z,101067.23
2019-05-06T12:24:04.149Z,101063.23
2019-05-06T12:26:33.676Z,101055.48
2019-05-06T12:29:03.117Z,101057.91
2019-05-06T12:31:32.950Z,101057.09
2019-05-06T12:34:02.931Z,101066.20
2019-05-06T12:36:32.786Z,101063.72
2019-05-06T12:39:23.463Z,101058.74
2019-05-06T12:42:15.685Z,101050.82
2019-05-06T12:45:07.239Z,101056.49
2019-05-06T12:47:50.341Z,101053.87
2019-05-06T12:50:22.512Z,101049.37
2019-05-06T12:52:52.560Z,101049.50
2019-05-06T12:55:25.213Z,101041.73
2019-05-06T12:57:55.232Z,101048.78
2019-05-06T13:00:25.880Z,101048.62
2019-05-06T13:02:55.305Z,101050.10
2019-05-06T13:05:24.805Z,101039.41
2019-05-06T13:07:54.250Z,101040.89
2019-05-06T13:10:24.307Z,101049.38
2019-05-06T13:12:59.043Z,101040.56
2019-05-06T13:15:28.483Z,101045.11
2019-05-06T13:17:57.960Z,101047.61
2019-05-06T13:20:27.477Z,101031.59
2019-05-06T13:23:15.904Z,101028.12
2019-05-06T13:25:42.998Z,101033.19
2019-05-06T13:28:16.062Z,101030.44
2019-05-06T13:30:45.594Z,101028.34
2019-05-06T13:33:34.490Z,101025.09
2019-05-06T13:36:04.093Z,101029.20
2019-05-06T13:38:33.583Z,101024.77
2019-05-06T13:41:03.480Z,101028.47
2019-05-06T13:43:48.316Z,101019.83
2019-05-06T13:46:23.720Z,101024.16
2019-05-06T13:49:13.367Z,101016.23
2019-05-06T13:51:47.852Z,101014.84
2019-05-06T13:54:17.256Z,101012.10
2019-05-06T13:56:48.928Z,101011.08
2019-05-06T13:59:18.085Z,101017.34
2019-05-06T14:01:56.838Z,101015.30
2019-05-06T14:04:26.599Z,101017.70
2019-05-06T14:06:56.074Z,101011.10
2019-05-06T14:09:32.549Z,101016.95
2019-05-06T14:11:56.976Z,101010.50
2019-05-06T14:14:26.856Z,101014.75
2019-05-06T14:16:56.456Z,101007.69
2019-05-06T14:19:25.837Z,101006.69
2019-05-06T14:21:55.316Z,101009.73
2019-05-06T14:24:24.824Z,101003.37
2019-05-06T14:26:59.242Z,101014.33
2019-05-06T14:29:53.772Z,101016.80
2019-05-06T14:32:23.746Z,101011.87
2019-05-06T14:34:53.317Z,101007.04
2019-05-06T14:37:22.752Z,101001.44
2019-05-06T14:39:59.108Z,101001.68
2019-05-06T14:42:25.312Z,100996.29
2019-05-06T14:44:54.857Z,101008.98
2019-05-06T14:47:26.791Z,101000.65
2019-05-06T14:49:56.198Z,100997.78
2019-05-06T14:52:25.670Z,100994.75
2019-05-06T14:55:04.093Z,100999.96
2019-05-06T14:57:33.611Z,101004.06
2019-05-06T15:00:04.364Z,101019.59
2019-05-06T15:02:34.021Z,101006.88
2019-05-06T15:05:03.556Z,101013.30
2019-05-06T15:07:35.135Z,101019.75
2019-05-06T15:10:19.309Z,101005.38
2019-05-06T15:12:35.754Z,101008.23
2019-05-06T15:15:05.320Z,101010.64
2019-05-06T15:17:36.815Z,101010.25
2019-05-06T15:20:06.167Z,101016.19
2019-05-06T15:22:35.652Z,101013.77
2019-05-06T15:25:05.645Z,101009.42
2019-05-06T15:27:35.100Z,101019.16
2019-05-06T15:30:06.896Z,101020.84
2019-05-06T15:32:38.093Z,101018.03
2019-05-06T15:35:23.961Z,101015.58
2019-05-06T15:38:05.585Z,101017.88
2019-05-06T15:40:36.668Z,101015.39
2019-05-06T15:43:06.500Z,101015.65
2019-05-06T15:45:35.938Z,101018.14
2019-05-06T15:48:05.348Z,101021.62
2019-05-06T15:50:34.950Z,101019.13
2019-05-06T15:53:04.431Z,101013.50
2019-05-06T15:55:33.917Z,101011.09
2019-05-06T15:58:03.723Z,101008.78
2019-05-06T16:00:33.309Z,101010.17
2019-05-06T16:03:02.890Z,101017.36
2019-05-06T16:05:34.412Z,101016.28
2019-05-06T16:08:04.987Z,101019.29
2019-05-06T16:10:50.386Z,101017.31
2019-05-06T16:13:05.583Z,101015.28
2019-05-06T16:15:35.183Z,101012.81
2019-05-06T16:18:04.895Z,101015.92
2019-05-06T16:20:34.425Z,101016.11
2019-05-06T16:23:11.919Z,101015.00
2019-05-06T16:25:42.325Z,101021.61
2019-05-06T16:28:13.002Z,101030.88
2019-05-06T16:30:42.764Z,101037.22
2019-05-06T16:33:15.294Z,101021.53
2019-05-06T16:35:43.400Z,101031.36
2019-05-06T16:38:13.269Z,101032.28
2019-05-06T16:40:45.386Z,101033.83
2019-05-06T16:43:14.039Z,101029.91
2019-05-06T16:45:45.452Z,101030.59
2019-05-06T16:48:14.802Z,101029.87
2019-05-06T16:50:44.203Z,101030.44
2019-05-06T16:53:13.763Z,101026.70
2019-05-06T16:56:02.266Z,101026.37
2019-05-06T16:58:34.525Z,101026.00
2019-05-06T17:01:03.987Z,101023.55
2019-05-06T17:03:40.246Z,101024.69
2019-05-06T17:06:17.268Z,101033.65
2019-05-06T17:08:46.750Z,101023.45
2019-05-06T17:11:26.808Z,101026.03
2019-05-06T17:13:47.490Z,101021.30
2019-05-06T17:16:18.799Z,101027.98
2019-05-06T17:18:48.288Z,101022.63
2019-05-06T17:21:17.778Z,101026.98
2019-05-06T17:23:47.557Z,101021.84
2019-05-06T17:26:17.007Z,101017.94
2019-05-06T17:29:05.414Z,101008.72
2019-05-06T17:31:53.839Z,101009.73
2019-05-06T17:34:33.140Z,101009.33
2019-05-06T17:37:15.618Z,101005.56
2019-05-06T17:39:45.250Z,101008.16
2019-05-06T17:42:14.877Z,101008.36
2019-05-06T17:44:44.441Z,101007.59
2019-05-06T17:47:34.598Z,101003.42
2019-05-06T17:50:04.387Z,101006.76
2019-05-06T17:52:34.229Z,101004.76
2019-05-06T17:55:04.041Z,101003.25
2019-05-06T17:57:33.516Z,101004.76
2019-05-06T18:00:03.361Z,101000.83
2019-05-06T18:02:33.347Z,100996.31
2019-05-06T18:05:03.328Z,101000.83
2019-05-06T18:07:32.858Z,100998.48
2019-05-06T18:10:03.008Z,101003.49
2019-05-06T18:12:33.289Z,100998.86
2019-05-06T18:15:03.190Z,101006.42
2019-05-06T18:17:33.559Z,101011.27
2019-05-06T18:20:03.422Z,101025.44
2019-05-06T18:22:33.021Z,101038.02
2019-05-06T18:25:02.699Z,101027.48
2019-05-06T18:27:32.712Z,101028.11
2019-05-06T18:30:15.073Z,101025.72
2019-05-06T18:32:34.697Z,101034.22
2019-05-06T18:35:04.718Z,101030.50
2019-05-06T18:37:34.323Z,101035.33
2019-05-06T18:40:03.872Z,101037.43
2019-05-06T18:42:33.657Z,101042.20
2019-05-06T18:45:03.653Z,101036.58
2019-05-06T18:47:33.401Z,101046.91
2019-05-06T18:50:02.982Z,101050.56
2019-05-06T18:52:32.735Z,101052.23
2019-05-06T18:55:02.185Z,101049.74
2019-05-06T18:57:32.844Z,101058.92
2019-05-06T19:00:03.236Z,101061.19
2019-05-06T19:02:32.896Z,101067.45
2019-05-06T19:05:24.940Z,101076.23
2019-05-06T19:07:53.033Z,101076.43
2019-05-06T19:10:28.124Z,101068.94
2019-05-06T19:12:57.877Z,101067.60
2019-05-06T19:15:28.931Z,101068.09
2019-05-06T19:17:58.535Z,101069.09
2019-05-06T19:20:28.205Z,101062.14
2019-05-06T19:22:57.821Z,101060.36
2019-05-06T19:25:27.382Z,101063.02
2019-05-06T19:27:56.959Z,101071.21
2019-05-06T19:30:26.823Z,101065.40
2019-05-06T19:32:56.321Z,101075.74
2019-05-06T19:35:25.939Z,101076.23
2019-05-06T19:37:55.389Z,101072.73
2019-05-06T19:40:24.901Z,101077.77
2019-05-06T19:42:54.492Z,101071.95
2019-05-06T19:45:23.895Z,101072.30
2019-05-06T19:47:53.273Z,101076.63
2019-05-06T19:50:25.734Z,101081.66
2019-05-06T19:52:54.470Z,101070.66
2019-05-06T19:55:24.031Z,101080.17
2019-05-06T19:57:53.474Z,101069.52
2019-05-06T20:00:23.939Z,101068.73
2019-05-06T20:02:53.436Z,101068.08
2019-05-06T20:05:44.592Z,101062.11
2019-05-06T20:08:33.051Z,101068.39
2019-05-06T20:11:18.507Z,101068.05
2019-05-06T20:13:47.911Z,101069.37
2019-05-06T20:16:19.922Z,101074.02
2019-05-06T20:18:48.519Z,101076.02
2019-05-06T20:21:18.000Z,101076.58
2019-05-06T20:23:47.495Z,101076.23
2019-05-06T20:26:16.985Z,101078.56
2019-05-06T20:28:46.370Z,101075.74
2019-05-06T20:31:15.880Z,101073.19
2019-05-06T20:33:45.409Z,101074.51
2019-05-06T20:36:14.889Z,101074.52
2019-05-06T20:38:44.337Z,101071.17
2019-05-06T20:41:13.861Z,101080.64
2019-05-06T20:43:43.423Z,101081.67
2019-05-06T20:46:12.931Z,101084.04
2019-05-06T20:48:42.428Z,101081.71
2019-05-06T20:51:12.428Z,101078.22
2019-05-06T20:53:43.152Z,101076.34
2019-05-06T20:56:12.856Z,101076.20
2019-05-06T20:58:42.340Z,101073.69
2019-05-06T21:01:11.880Z,101081.97
2019-05-06T21:03:42.374Z,101080.77
2019-05-06T21:06:13.161Z,101076.50
2019-05-06T21:08:42.782Z,101078.16
2019-05-06T21:11:25.362Z,101076.04
2019-05-06T21:13:43.402Z,101078.16
2019-05-06T21:16:13.088Z,101074.21
2019-05-06T21:18:42.510Z,101077.17
2019-05-06T21:21:13.559Z,101073.48
2019-05-06T21:23:43.359Z,101075.45
2019-05-06T21:26:13.657Z,101079.44
2019-05-06T21:28:46.292Z,101073.87
2019-05-06T21:31:14.525Z,101072.73
2019-05-06T21:33:43.899Z,101076.34
2019-05-06T21:36:13.358Z,101081.17
2019-05-06T21:38:42.911Z,101089.36
2019-05-06T21:41:12.481Z,101087.23
2019-05-06T21:43:47.067Z,101088.87
2019-05-06T21:46:13.147Z,101091.22
2019-05-06T21:48:42.687Z,101087.54
2019-05-06T21:51:12.728Z,101083.58
2019-05-06T21:53:42.344Z,101082.59
2019-05-06T21:56:13.060Z,101085.59
2019-05-06T21:58:43.189Z,101082.94
2019-05-06T22:01:12.946Z,101085.81
2019-05-06T22:03:43.341Z,101083.23
2019-05-06T22:06:13.191Z,101086.34
2019-05-06T22:08:42.749Z,101088.19
2019-05-06T22:11:12.215Z,101092.22
2019-05-06T22:13:42.579Z,101094.73
2019-05-06T22:16:12.623Z,101091.19
2019-05-06T22:18:43.182Z,101093.35
2019-05-06T22:21:26.419Z,101090.25
2019-05-06T22:24:04.253Z,101086.20
2019-05-06T22:26:32.583Z,101084.44
2019-05-06T22:29:02.341Z,101089.52
2019-05-06T22:31:33.097Z,101087.09
2019-05-06T22:34:02.700Z,101094.53
2019-05-06T22:36:32.447Z,101093.75
2019-05-06T22:39:02.568Z,101095.52
2019-05-06T22:41:32.685Z,101091.53
2019-05-06T22:44:13.129Z,101087.44
2019-05-06T22:46:33.693Z,101090.45
2019-05-06T22:49:03.245Z,101085.16
2019-05-06T22:51:32.651Z,101085.32
2019-05-06T22:54:02.857Z,101089.11
2019-05-06T22:56:32.766Z,101090.69
2019-05-06T22:59:03.273Z,101096.89
2019-05-06T23:01:54.264Z,101092.86
2019-05-06T23:04:24.074Z,101095.52
2019-05-06T23:06:53.712Z,101093.98
2019-05-06T23:09:24.983Z,101089.34
2019-05-06T23:11:54.196Z,101098.95
2019-05-06T23:14:31.059Z,101090.06
2019-05-06T23:16:54.759Z,101093.75
2019-05-06T23:19:24.578Z,101095.11
2019-05-06T23:21:54.299Z,101097.25
2019-05-06T23:24:23.657Z,101103.22
2019-05-06T23:26:54.774Z,101094.77
2019-05-06T23:29:24.143Z,101103.81
2019-05-06T23:31:53.624Z,101107.70
2019-05-06T23:34:23.291Z,101104.70
2019-05-06T23:37:26.457Z,101101.25
2019-05-06T23:40:35.536Z,101095.22
2019-05-06T23:43:42.614Z,101106.86
2019-05-06T23:46:47.457Z,101099.19
2019-05-06T23:49:52.889Z,101094.16
2019-05-06T23:52:58.071Z,101096.48
2019-05-06T23:56:03.303Z,101100.47
2019-05-06T23:58:32.722Z,101102.41
